createdAt,value
2018-11-27T00:01:27.168Z,57.33
2018-11-27T00:06:45.818Z,55.93
2018-11-27T00:12:04.449Z,62.30
2018-11-27T00:17:22.986Z,63.57
2018-11-27T00:22:41.642Z,53.93
2018-11-27T00:28:00.141Z,62.70
2018-11-27T00:33:18.633Z,57.77
2018-11-27T00:38:37.200Z,57.57
2018-11-27T00:43:55.700Z,64.20
2018-11-27T00:49:14.303Z,59.97
2018-11-27T00:54:32.818Z,59.20
2018-11-27T00:59:51.418Z,64.87
2018-11-27T01:05:13.788Z,66.23
2018-11-27T01:10:32.350Z,63.77
2018-11-27T01:15:51.150Z,65.30
2018-11-27T01:21:09.732Z,66.47
2018-11-27T01:26:28.377Z,68.43
2018-11-27T01:31:46.952Z,55.83
2018-11-27T01:37:05.895Z,59.10
2018-11-27T01:42:24.470Z,64.17
2018-11-27T01:47:43.054Z,65.70
2018-11-27T01:53:01.650Z,63.37
2018-11-27T01:58:20.177Z,66.10
2018-11-27T02:03:38.796Z,58.43
2018-11-27T02:08:57.361Z,69.60
2018-11-27T02:14:16.649Z,70.37
2018-11-27T02:19:35.354Z,68.20
2018-11-27T02:24:53.993Z,65.23
2018-11-27T02:30:14.201Z,65.67
2018-11-27T02:35:32.773Z,65.25
2018-11-27T02:40:51.261Z,66.93
2018-11-27T02:46:09.770Z,66.30
2018-11-27T02:51:28.293Z,67.10
2018-11-27T02:56:46.784Z,66.40
2018-11-27T03:02:05.360Z,63.87
2018-11-27T03:07:23.972Z,68.47
2018-11-27T03:12:42.541Z,65.97
2018-11-27T03:18:01.120Z,64.60
2018-11-27T03:23:19.616Z,58.83
2018-11-27T03:28:38.140Z,63.00
2018-11-27T03:33:56.770Z,65.37
2018-11-27T03:39:16.247Z,73.07
2018-11-27T03:44:34.932Z,67.17
2018-11-27T03:49:53.517Z,72.47
2018-11-27T03:55:12.850Z,61.77
2018-11-27T04:00:31.780Z,73.30
2018-11-27T04:05:50.435Z,62.10
2018-11-27T04:11:09.013Z,57.33
2018-11-27T04:16:27.590Z,58.27
2018-11-27T04:21:46.107Z,60.50
2018-11-27T04:27:04.904Z,50.27
2018-11-27T04:32:23.485Z,53.97
2018-11-27T04:37:42.075Z,48.47
2018-11-27T04:43:00.629Z,57.87
2018-11-27T04:48:19.231Z,59.17
2018-11-27T04:53:37.874Z,55.90
2018-11-27T04:58:56.414Z,64.97
2018-11-27T05:04:14.928Z,62.47
2018-11-27T05:09:33.469Z,59.70
2018-11-27T05:14:52.022Z,58.80
2018-11-27T05:20:11.733Z,53.02
2018-11-27T05:25:30.293Z,55.27
2018-11-27T05:30:48.926Z,57.93
2018-11-27T05:36:07.478Z,58.13
2018-11-27T05:41:26.009Z,64.23
2018-11-27T05:46:44.498Z,55.00
2018-11-27T05:52:03.060Z,60.98
2018-11-27T05:57:21.621Z,57.53
2018-11-27T06:02:40.390Z,63.93
2018-11-27T06:07:58.967Z,62.57
2018-11-27T06:13:17.558Z,67.77
2018-11-27T06:18:36.126Z,56.63
2018-11-27T06:23:54.700Z,60.50
2018-11-27T06:29:13.245Z,51.00
2018-11-27T06:34:31.998Z,55.47
2018-11-27T06:39:50.637Z,61.33
2018-11-27T06:45:11.541Z,60.17
2018-11-27T06:50:30.081Z,57.63
2018-11-27T06:55:48.691Z,54.83
2018-11-27T07:01:07.353Z,58.10
2018-11-27T07:06:25.877Z,58.98
2018-11-27T07:11:44.384Z,57.07
2018-11-27T07:17:02.951Z,59.90
2018-11-27T07:22:21.615Z,58.10
2018-11-27T07:27:40.470Z,65.47
2018-11-27T07:32:59.051Z,61.53
2018-11-27T07:38:17.590Z,56.43
2018-11-27T07:43:36.122Z,59.03
2018-11-27T07:48:54.653Z,63.50
2018-11-27T07:54:13.203Z,59.70
2018-11-27T07:59:32.073Z,58.60
2018-11-27T08:04:50.663Z,61.33
2018-11-27T08:10:13.613Z,60.03
2018-11-27T08:20:56.242Z,64.73
2018-11-27T08:26:14.776Z,65.67
2018-11-27T08:31:33.918Z,59.13
2018-11-27T08:36:52.453Z,62.27
2018-11-27T08:42:11.029Z,58.28
2018-11-27T08:47:29.567Z,64.40
2018-11-27T08:52:53.321Z,58.33
2018-11-27T08:58:18.114Z,58.07
2018-11-27T09:03:36.693Z,63.17
2018-11-27T09:08:55.257Z,55.27
2018-11-27T09:14:14.130Z,63.87
2018-11-27T09:19:32.399Z,59.47
2018-11-27T09:24:50.906Z,64.23
2018-11-27T09:30:14.788Z,56.43
2018-11-27T09:35:33.397Z,55.93
2018-11-27T09:40:51.974Z,47.93
2018-11-27T09:46:10.496Z,55.73
2018-11-27T09:51:29.033Z,50.60
2018-11-27T09:56:47.744Z,53.13
2018-11-27T10:02:06.343Z,49.43
2018-11-27T10:07:24.911Z,51.50
2018-11-27T10:12:43.842Z,42.87
2018-11-27T10:18:02.917Z,48.40
2018-11-27T10:23:21.553Z,45.67
2018-11-27T10:28:40.103Z,43.57
2018-11-27T10:33:58.617Z,42.10
2018-11-27T10:39:17.187Z,35.87
2018-11-27T10:44:36.304Z,36.27
2018-11-27T10:49:54.938Z,36.03
2018-11-27T10:55:15.217Z,39.13
2018-11-27T11:00:39.273Z,35.87
2018-11-27T11:05:57.944Z,41.07
2018-11-27T11:11:16.429Z,37.83
2018-11-27T11:16:34.921Z,38.37
2018-11-27T11:21:53.425Z,38.40
2018-11-27T11:27:11.936Z,39.33
2018-11-27T11:32:30.546Z,32.23
2018-11-27T11:37:49.553Z,40.17
2018-11-27T11:43:08.289Z,35.43
2018-11-27T11:48:26.903Z,34.50
2018-11-27T11:53:45.553Z,40.07
2018-11-27T11:59:04.129Z,35.58
2018-11-27T12:04:22.683Z,31.20
2018-11-27T12:09:41.196Z,32.33
2018-11-27T12:14:59.813Z,28.70
2018-11-27T12:20:19.691Z,22.37
2018-11-27T12:25:38.777Z,25.13
2018-11-27T12:30:57.331Z,27.37
2018-11-27T12:36:15.823Z,20.65
2018-11-27T12:41:34.400Z,26.90
2018-11-27T12:46:52.922Z,24.70
2018-11-27T12:52:11.459Z,24.43
2018-11-27T12:57:30.023Z,22.67
2018-11-27T13:02:49.047Z,27.33
2018-11-27T13:08:23.702Z,25.03
2018-11-27T13:13:42.481Z,26.07
2018-11-27T13:19:01.014Z,26.17
2018-11-27T13:24:19.611Z,25.60
2018-11-27T13:29:38.285Z,27.23
2018-11-27T13:34:56.836Z,25.03
2018-11-27T13:40:15.480Z,28.07
2018-11-27T13:45:34.049Z,32.07
2018-11-27T13:50:52.627Z,30.20
2018-11-27T13:56:11.219Z,26.97
2018-11-27T14:01:29.733Z,30.93
2018-11-27T14:06:48.249Z,27.07
2018-11-27T14:12:07.029Z,28.17
2018-11-27T14:17:25.679Z,26.87
2018-11-27T14:22:46.036Z,26.40
2018-11-27T14:28:04.605Z,25.83
2018-11-27T14:33:23.078Z,27.40
2018-11-27T14:38:42.664Z,27.27
2018-11-27T14:44:01.401Z,27.53
2018-11-27T14:49:20.155Z,25.13
2018-11-27T14:54:40.473Z,22.63
2018-11-27T14:59:59.146Z,24.73
2018-11-27T15:05:26.112Z,30.40
2018-11-27T15:10:44.777Z,26.60
2018-11-27T15:16:03.487Z,24.53
2018-11-27T15:21:22.400Z,26.23
2018-11-27T15:26:51.666Z,23.30
2018-11-27T15:32:10.330Z,25.87
2018-11-27T15:37:28.906Z,26.30
2018-11-27T15:42:47.469Z,26.80
2018-11-27T15:48:08.708Z,23.63
2018-11-27T15:53:27.394Z,30.43
2018-11-27T16:04:33.093Z,24.90
2018-11-27T16:09:51.794Z,20.23
2018-11-27T16:15:13.704Z,26.60
2018-11-27T16:20:32.659Z,22.70
2018-11-27T16:25:51.834Z,24.30
2018-11-27T16:31:10.607Z,25.57
2018-11-27T16:36:29.252Z,23.87
2018-11-27T16:41:48.002Z,20.63
2018-11-27T16:47:07.387Z,24.97
2018-11-27T16:52:26.389Z,23.20
2018-11-27T16:57:45.378Z,23.23
2018-11-27T17:03:05.392Z,25.23
2018-11-27T17:08:24.871Z,17.87
2018-11-27T17:13:43.729Z,22.10
2018-11-27T17:19:02.364Z,19.43
2018-11-27T17:24:21.131Z,19.17
2018-11-27T17:29:40.097Z,17.80
2018-11-27T17:34:58.936Z,21.33
2018-11-27T17:40:17.726Z,23.30
2018-11-27T17:45:36.721Z,21.40
2018-11-27T17:50:55.564Z,27.03
2018-11-27T17:56:14.445Z,25.40
2018-11-27T18:01:33.127Z,19.43
2018-11-27T18:06:51.824Z,24.77
2018-11-27T18:12:10.434Z,23.87
2018-11-27T18:17:29.580Z,25.65
2018-11-27T18:22:48.381Z,26.07
2018-11-27T18:28:06.993Z,24.27
2018-11-27T18:33:38.009Z,22.57
2018-11-27T18:38:56.558Z,25.00
2018-11-27T18:44:15.249Z,19.70
2018-11-27T18:49:33.747Z,23.77
2018-11-27T18:54:52.404Z,24.03
2018-11-27T19:00:29.079Z,21.63
2018-11-27T19:05:47.850Z,22.60
2018-11-27T19:11:09.077Z,26.60
2018-11-27T19:16:27.797Z,22.67
2018-11-27T19:21:46.626Z,27.40
2018-11-27T19:27:05.402Z,25.87
2018-11-27T19:32:24.245Z,31.60
2018-11-27T19:37:42.887Z,33.63
2018-11-27T19:43:01.404Z,35.80
2018-11-27T19:48:20.000Z,28.15
2018-11-27T19:53:39.223Z,32.27
2018-11-27T19:58:57.128Z,28.60
2018-11-27T20:04:15.689Z,34.37
2018-11-27T20:09:34.275Z,30.90
2018-11-27T20:14:52.882Z,29.80
2018-11-27T20:20:13.030Z,39.35
2018-11-27T20:25:31.694Z,32.67
2018-11-27T20:30:50.872Z,43.93
2018-11-27T20:36:10.055Z,31.37
2018-11-27T20:41:28.658Z,32.77
2018-11-27T20:46:48.020Z,32.98
2018-11-27T20:52:06.639Z,40.70
2018-11-27T20:57:25.274Z,39.90
2018-11-27T21:02:44.561Z,40.27
2018-11-27T21:08:02.597Z,37.83
2018-11-27T21:13:21.850Z,38.37
2018-11-27T21:18:40.359Z,41.57
2018-11-27T21:23:58.932Z,32.80
2018-11-27T21:29:17.528Z,35.40
2018-11-27T21:34:36.658Z,28.43
2018-11-27T21:39:55.626Z,39.63
2018-11-27T21:45:15.692Z,34.47
2018-11-27T21:50:39.337Z,35.67
2018-11-27T21:55:59.745Z,39.90
2018-11-27T22:01:18.232Z,35.90
2018-11-27T22:06:37.049Z,32.77
2018-11-27T22:11:55.601Z,33.67
2018-11-27T22:17:14.182Z,41.53
2018-11-27T22:22:32.714Z,33.33
2018-11-27T22:27:57.806Z,39.57
2018-11-27T22:33:16.429Z,35.13
2018-11-27T22:38:35.053Z,38.43
2018-11-27T22:43:53.660Z,36.47
2018-11-27T22:49:12.234Z,34.73
2018-11-27T22:54:31.455Z,38.03
2018-11-27T22:59:50.010Z,36.03
2018-11-27T23:05:09.230Z,36.93
2018-11-27T23:10:29.261Z,36.17
2018-11-27T23:15:48.447Z,35.10
2018-11-27T23:21:07.011Z,38.30
2018-11-27T23:26:25.532Z,34.40
2018-11-27T23:31:44.923Z,38.90
2018-11-27T23:37:04.079Z,42.33
2018-11-27T23:42:22.606Z,34.93
2018-11-27T23:47:41.103Z,35.50
2018-11-27T23:52:59.636Z,32.40
2018-11-27T23:58:18.337Z,40.10
